Time;durP1;ratioP1;P1;durP2;ratioP2;P2;SDS_P1;SDS_P2;PMS_P1;PMS_P2;Temp;Humidity;BMP_temperature;BMP_pressure;BME280_temperature;BME280_humidity;BME280_pressure;Samples;Min_cycle;Max_cycle;Signal;HPM_P1;HPM_P2
2022/06/05 00:01:36;;;;;;;7.88;5.68;;;;;;;18.74;65.85;101653.75;4967221;28;20565;-73
2022/06/05 00:04:27;;;;;;;6.43;5.82;;;;;;;18.70;65.68;101651.09;4977285;28;20082;-73
2022/06/05 00:07:24;;;;;;;8.00;6.18;;;;;;;18.66;65.56;101649.28;4953578;28;20140;-73
2022/06/05 00:10:17;;;;;;;6.88;6.22;;;;;;;18.64;65.89;101648.38;4971184;28;20019;-74
2022/06/05 00:13:10;;;;;;;5.63;5.13;;;;;;;18.58;65.67;101640.47;4971115;28;20085;-74
2022/06/05 00:15:36;;;;;;;6.70;6.10;;;;;;;18.55;65.76;101628.16;4959686;28;20502;-73
2022/06/05 00:18:01;;;;;;;6.45;5.90;;;;;;;18.52;65.88;101627.25;4970116;28;20027;-74
2022/06/05 00:20:27;;;;;;;6.60;6.00;;;;;;;18.45;66.04;101624.56;4985282;28;20394;-74
2022/06/05 00:22:52;;;;;;;6.38;5.68;;;;;;;18.43;66.09;101621.06;4969359;28;20062;-74
2022/06/05 00:25:17;;;;;;;6.10;5.50;;;;;;;18.42;66.29;101616.66;4970017;28;20097;-74
2022/06/05 00:27:53;;;;;;;6.30;5.68;;;;;;;18.40;66.05;101622.75;4970661;28;20037;-73
2022/06/05 00:30:26;;;;;;;6.30;5.78;;;;;;;18.39;66.02;101627.13;4970587;28;20038;-73
2022/06/05 00:33:05;;;;;;;5.55;5.05;;;;;;;18.34;66.35;101618.31;4970695;28;20026;-73
2022/06/05 00:35:40;;;;;;;6.00;5.40;;;;;;;18.32;66.10;101620.03;4970289;28;20101;-74
2022/06/05 00:38:12;;;;;;;5.70;5.15;;;;;;;18.29;66.48;101606.88;4970120;28;20149;-73
2022/06/05 00:41:24;;;;;;;6.22;5.40;;;;;;;18.22;66.36;101598.94;4970135;28;20475;-73
2022/06/05 00:43:54;;;;;;;5.90;5.32;;;;;;;18.21;66.52;101601.53;4970041;28;20137;-73
2022/06/05 00:46:22;;;;;;;6.30;5.53;;;;;;;18.16;67.00;101595.34;4970289;28;20301;-73
2022/06/05 00:48:47;;;;;;;5.93;5.43;;;;;;;18.13;67.09;101604.06;4969469;28;20031;-74
2022/06/05 00:51:13;;;;;;;5.95;5.45;;;;;;;18.09;67.51;101594.38;4970170;28;20077;-74
2022/06/05 00:53:38;;;;;;;5.95;5.43;;;;;;;18.07;67.27;101603.97;4969835;28;20030;-73
2022/06/05 00:56:03;;;;;;;6.85;5.57;;;;;;;18.04;67.30;101593.44;4985040;28;20073;-73
2022/06/05 00:58:30;;;;;;;6.30;5.70;;;;;;;17.99;67.46;101596.88;4969202;28;20105;-74
2022/06/05 01:00:56;;;;;;;6.45;5.70;;;;;;;17.96;67.58;101593.31;4969675;28;20546;-73
2022/06/05 01:03:23;;;;;;;6.63;5.93;;;;;;;17.90;67.91;101599.38;4956464;28;20022;-73
2022/06/05 01:05:48;;;;;;;7.38;5.30;;;;;;;17.84;68.16;101591.44;4969611;28;20030;-74
2022/06/05 01:08:15;;;;;;;6.10;5.60;;;;;;;17.83;68.11;101600.13;4969554;28;20423;-73
2022/06/05 01:10:59;;;;;;;8.10;6.47;;;;;;;17.81;68.35;101601.88;4969184;28;20030;-73
2022/06/05 01:13:25;;;;;;;6.40;5.90;;;;;;;17.84;68.21;101596.69;4969695;28;20544;-73
2022/06/05 01:16:03;;;;;;;6.40;5.90;;;;;;;17.72;68.84;101598.25;4984718;28;20121;-73
2022/06/05 01:18:51;;;;;;;6.20;5.60;;;;;;;17.70;69.11;101589.47;4959107;28;20153;-73
2022/06/05 01:21:27;;;;;;;6.63;6.03;;;;;;;17.67;69.01;101588.56;4968238;28;20042;-73
2022/06/05 01:24:30;;;;;;;6.57;5.97;;;;;;;17.66;69.39;101592.94;4968926;28;20181;-73
2022/06/05 01:27:01;;;;;;;6.07;5.50;;;;;;;17.64;69.04;101590.31;4969061;28;20435;-74
2022/06/05 01:29:38;;;;;;;;;;;;;;;17.63;69.64;101598.13;4969653;28;20117;-73
2022/06/05 01:32:12;;;;;;;6.43;5.72;;;;;;;17.59;69.77;101627.78;4969120;28;19910;-72
2022/06/05 01:34:44;;;;;;;6.45;5.85;;;;;;;17.58;69.98;101642.59;4968563;28;20031;-73
2022/06/05 01:37:12;;;;;;;8.02;6.07;;;;;;;17.57;70.18;101626.88;4969230;28;20105;-73
2022/06/05 01:39:49;;;;;;;6.45;5.82;;;;;;;17.58;70.22;101611.16;4969436;28;20391;-73
2022/06/05 01:42:30;;;;;;;6.47;5.88;;;;;;;17.61;70.49;101647.88;4968845;28;20027;-73
2022/06/05 01:44:59;;;;;;;7.80;5.82;;;;;;;17.63;70.57;101664.50;4968566;28;20027;-73
2022/06/05 01:47:32;;;;;;;6.32;5.72;;;;;;;17.64;70.94;101628.72;4969058;28;20431;-72
2022/06/05 01:50:07;;;;;;;6.70;5.75;;;;;;;17.65;70.65;101596.41;4969138;28;20023;-73
2022/06/05 01:52:39;;;;;;;6.80;6.20;;;;;;;17.67;70.79;101605.16;4968749;28;20491;-73
2022/06/05 01:55:18;;;;;;;6.82;5.88;;;;;;;17.66;71.29;101619.16;4950642;28;20122;-73
2022/06/05 01:57:44;;;;;;;6.03;5.47;;;;;;;17.65;70.93;101609.50;4968562;28;20058;-73
2022/06/05 02:00:15;;;;;;;6.75;5.68;;;;;;;17.66;71.35;101607.78;4951073;28;20434;-73
2022/06/05 02:03:06;;;;;;;6.05;5.55;;;;;;;17.63;72.68;101585.00;4968807;28;20129;-73
2022/06/05 02:05:42;;;;;;;6.70;5.60;;;;;;;17.63;71.76;101566.66;4968970;28;20027;-74
2022/06/05 02:08:17;;;;;;;6.38;5.82;;;;;;;17.61;72.98;101566.66;4967854;28;20074;-75
2022/06/05 02:10:53;;;;;;;5.88;5.40;;;;;;;17.60;73.17;101564.00;4968555;28;20071;-75
2022/06/05 02:13:19;;;;;;;6.72;6.13;;;;;;;17.57;72.53;101557.00;4968595;28;20019;-75
2022/06/05 02:15:47;;;;;;;6.40;5.80;;;;;;;17.55;72.58;101544.72;4968835;28;20031;-75
2022/06/05 02:18:13;;;;;;;7.40;6.28;;;;;;;17.51;72.66;101531.59;4968355;28;20483;-75
2022/06/05 02:20:40;;;;;;;7.93;7.03;;;;;;;17.48;72.94;101525.44;4967892;28;20125;-75
2022/06/05 02:23:12;;;;;;;7.55;6.95;;;;;;;17.45;73.35;101521.00;4968216;28;20031;-75
2022/06/05 02:25:39;;;;;;;7.85;7.15;;;;;;;17.42;72.61;101512.22;4968757;28;20310;-75
2022/06/05 02:28:07;;;;;;;7.40;6.60;;;;;;;17.39;72.77;101506.13;4967044;28;20080;-75
2022/06/05 02:30:45;;;;;;;7.13;6.63;;;;;;;17.36;72.67;101506.06;4968681;28;20226;-75
2022/06/05 02:33:38;;;;;;;7.05;6.35;;;;;;;17.35;72.63;101504.31;4951008;28;20459;-76
2022/06/05 02:36:35;;;;;;;7.20;6.18;;;;;;;17.35;71.96;101504.31;4958178;28;20058;-75
2022/06/05 02:39:22;;;;;;;6.85;6.25;;;;;;;17.35;72.27;101493.81;4946474;29;20050;-75
2022/06/05 02:41:54;;;;;;;6.40;5.93;;;;;;;17.33;72.60;101500.78;4962909;28;20053;-75
2022/06/05 02:44:52;;;;;;;7.80;5.93;;;;;;;17.32;71.56;101487.66;4969535;28;20021;-75
2022/06/05 02:47:38;;;;;;;7.40;6.70;;;;;;;17.30;71.59;101484.13;4972323;28;20027;-75
2022/06/05 02:50:12;;;;;;;6.82;6.22;;;;;;;17.25;70.91;101478.84;4972201;28;20022;-75
2022/06/05 02:52:38;;;;;;;6.15;5.65;;;;;;;17.23;71.26;101470.97;4972233;28;20049;-75
2022/06/05 02:55:12;;;;;;;6.45;5.95;;;;;;;17.21;71.51;101470.06;4972337;28;20030;-75
2022/06/05 02:57:37;;;;;;;6.78;6.18;;;;;;;17.20;71.53;101452.56;4954981;28;20054;-75
2022/06/05 03:00:07;;;;;;;7.47;6.68;;;;;;;17.17;71.40;101447.31;4972215;28;20074;-75
2022/06/05 03:05:16;;;;;;;6.65;5.82;;;;;;;17.13;71.84;101445.50;4959403;28;20061;-75
2022/06/05 03:07:42;;;;;;;7.35;6.65;;;;;;;17.11;72.04;101449.81;4972051;28;20054;-75
2022/06/05 03:10:08;;;;;;;6.97;6.28;;;;;;;17.06;71.73;101441.88;4971792;28;20045;-75
2022/06/05 03:12:33;;;;;;;7.22;6.53;;;;;;;17.05;71.75;101442.75;4952812;28;20030;-75
2022/06/05 03:15:01;;;;;;;7.40;6.70;;;;;;;17.03;71.97;101439.22;4970374;28;20053;-75
2022/06/05 03:17:27;;;;;;;8.60;6.68;;;;;;;16.99;71.78;101432.16;4970401;28;20030;-75
2022/06/05 03:19:53;;;;;;;8.57;7.28;;;;;;;16.96;71.37;101430.41;4969377;28;20054;-74
2022/06/05 03:22:18;;;;;;;7.32;6.70;;;;;;;16.97;71.82;101429.53;4985146;28;20110;-75
2022/06/05 03:24:43;;;;;;;8.20;7.40;;;;;;;16.94;72.15;101419.03;4969248;28;20110;-75
2022/06/05 03:27:09;;;;;;;8.35;7.47;;;;;;;16.90;71.80;101415.47;4969828;28;20261;-75
2022/06/05 03:29:34;;;;;;;8.25;7.10;;;;;;;16.89;71.85;101405.84;4986019;28;20023;-75
2022/06/05 03:31:59;;;;;;;7.55;6.82;;;;;;;16.86;72.21;101405.81;4970981;28;20045;-75
2022/06/05 03:34:24;;;;;;;8.40;7.60;;;;;;;16.79;72.17;101399.63;4970637;28;20030;-75
2022/06/05 03:36:50;;;;;;;8.05;7.40;;;;;;;16.68;73.00;101390.72;4952159;28;20078;-74
2022/06/05 03:39:15;;;;;;;7.68;7.05;;;;;;;16.61;72.71;101394.09;4979018;28;20114;-75
2022/06/05 03:41:41;;;;;;;9.55;7.57;;;;;;;16.58;72.69;101396.66;4962005;28;20023;-75
2022/06/05 03:44:06;;;;;;;8.45;7.55;;;;;;;16.55;73.08;101408.84;4967721;28;20657;-75
2022/06/05 03:46:35;;;;;;;7.97;7.38;;;;;;;16.48;72.90;101412.19;4968238;28;20035;-75
2022/06/05 03:49:00;;;;;;;8.73;7.93;;;;;;;16.44;72.75;101413.03;4968556;28;20034;-74
2022/06/05 03:51:26;;;;;;;8.25;7.45;;;;;;;16.41;73.14;101412.94;4969444;28;20026;-75
2022/06/05 03:53:51;;;;;;;8.93;7.13;;;;;;;16.40;72.88;101413.81;4970161;28;20034;-74
2022/06/05 03:56:20;;;;;;;7.80;7.07;;;;;;;16.39;72.96;101426.00;4969948;28;20022;-74
2022/06/05 03:58:46;;;;;;;7.57;6.95;;;;;;;16.36;73.08;101431.19;4969740;28;20026;-74
2022/06/05 04:01:16;;;;;;;7.57;6.88;;;;;;;16.36;73.19;101441.66;4969353;28;20093;-74
2022/06/05 04:03:42;;;;;;;9.27;7.78;;;;;;;16.36;72.86;101430.31;4969771;28;20153;-75
2022/06/05 04:06:10;;;;;;;7.60;6.90;;;;;;;16.36;73.10;101435.53;4970024;28;20125;-74
2022/06/05 04:08:37;;;;;;;8.55;7.18;;;;;;;16.37;73.25;101439.94;4970198;28;20034;-74
2022/06/05 04:11:10;;;;;;;7.68;6.80;;;;;;;16.36;73.23;101436.44;4970186;28;20105;-74
2022/06/05 04:13:36;;;;;;;7.93;7.13;;;;;;;16.36;73.56;101430.31;4968023;28;20066;-74
2022/06/05 04:16:12;;;;;;;9.32;7.80;;;;;;;16.36;73.48;101422.47;4969773;28;20035;-75
2022/06/05 04:18:38;;;;;;;8.02;7.00;;;;;;;16.35;73.65;101418.09;4970391;28;20464;-74
2022/06/05 04:21:12;;;;;;;8.55;7.20;;;;;;;16.35;73.64;101420.72;4969432;28;20523;-74
2022/06/05 04:23:37;;;;;;;7.95;7.25;;;;;;;16.32;73.88;101418.91;4969556;28;20427;-74
2022/06/05 04:26:07;;;;;;;8.32;7.47;;;;;;;16.30;73.68;101411.03;4969417;28;20018;-75
2022/06/05 04:28:33;;;;;;;7.75;6.82;;;;;;;16.31;74.39;101415.44;4969721;28;20047;-75
2022/06/05 04:30:58;;;;;;;7.38;6.70;;;;;;;16.27;73.71;101405.78;4969595;28;20265;-75
2022/06/05 04:33:24;;;;;;;8.18;7.18;;;;;;;16.29;73.72;101409.28;4969421;28;20023;-75
2022/06/05 04:35:49;;;;;;;7.95;6.90;;;;;;;16.30;73.63;101404.91;4969637;28;20026;-74
2022/06/05 04:38:15;;;;;;;8.32;7.53;;;;;;;16.30;73.61;101411.03;4968927;28;20081;-74
2022/06/05 04:40:41;;;;;;;8.35;7.30;;;;;;;16.31;73.48;101417.16;4969311;28;20153;-75
2022/06/05 04:43:08;;;;;;;8.65;7.78;;;;;;;16.27;73.67;101411.00;4969526;28;20088;-75
2022/06/05 04:45:33;;;;;;;8.27;7.43;;;;;;;16.27;73.58;101408.38;4969579;28;20050;-74
2022/06/05 04:47:59;;;;;;;7.47;6.80;;;;;;;16.27;74.09;101407.50;4969673;28;20061;-74
2022/06/05 04:50:24;;;;;;;8.98;8.18;;;;;;;16.23;74.31;101398.72;4968989;28;20022;-74
2022/06/05 04:52:50;;;;;;;8.02;7.20;;;;;;;16.23;74.61;101408.28;4968961;28;20059;-74
2022/06/05 04:55:15;;;;;;;9.02;7.32;;;;;;;16.19;74.50;101412.63;4969515;28;20058;-74
2022/06/05 04:57:41;;;;;;;8.63;7.75;;;;;;;16.18;74.58;101410.81;4969137;28;20037;-75
2022/06/05 05:00:07;;;;;;;8.02;7.32;;;;;;;16.15;74.84;101406.44;4969397;28;20025;-74
2022/06/05 05:02:32;;;;;;;7.93;7.18;;;;;;;16.17;74.94;101411.69;4968311;28;20204;-75
2022/06/05 05:04:58;;;;;;;8.55;7.85;;;;;;;16.18;74.88;101413.44;4968619;28;20026;-74
2022/06/05 05:07:23;;;;;;;9.98;7.70;;;;;;;16.17;75.09;101403.84;4968732;28;20049;-74
2022/06/05 05:09:48;;;;;;;9.40;8.50;;;;;;;16.14;75.33;101409.00;4968773;28;20038;-75
2022/06/05 05:12:15;;;;;;;8.43;7.70;;;;;;;16.13;75.79;101409.88;4969287;28;20056;-75
2022/06/05 05:14:41;;;;;;;7.97;7.18;;;;;;;16.04;76.32;101403.63;4968982;28;20053;-75
2022/06/05 05:17:06;;;;;;;8.23;7.53;;;;;;;16.06;76.48;101429.78;4968272;28;20456;-75
2022/06/05 05:19:31;;;;;;;9.88;7.82;;;;;;;16.07;76.66;101431.53;4952195;28;20030;-74
2022/06/05 05:21:57;;;;;;;8.68;7.88;;;;;;;16.08;76.03;101428.09;4969275;28;20194;-74
2022/06/05 05:24:22;;;;;;;9.73;8.23;;;;;;;16.08;76.46;101431.56;4969625;28;20058;-74
2022/06/05 05:26:47;;;;;;;8.57;7.57;;;;;;;16.07;76.48;101432.44;4969647;28;20046;-74
2022/06/05 05:29:13;;;;;;;8.77;7.15;;;;;;;16.04;76.84;101424.53;4951700;28;20019;-74
2022/06/05 05:31:40;;;;;;;8.20;7.40;;;;;;;16.08;76.92;101420.25;4968955;28;20038;-74
2022/06/05 05:34:07;;;;;;;8.82;7.63;;;;;;;16.12;76.33;101421.19;4947837;28;20319;-74
2022/06/05 05:36:33;;;;;;;8.05;7.35;;;;;;;16.13;76.74;101423.84;4969060;28;20083;-75
2022/06/05 05:44:27;;;;;;;8.95;7.65;;;;;;;16.14;77.06;101420.34;4960879;28;20045;-75
2022/06/05 05:46:53;;;;;;;10.77;7.80;;;;;;;16.17;77.55;101425.63;4968174;28;20022;-74
2022/06/05 05:49:18;;;;;;;8.68;7.80;;;;;;;16.13;78.33;101415.09;4956319;28;20251;-74
2022/06/05 05:51:44;;;;;;;9.30;7.63;;;;;;;16.17;77.70;101414.31;4961215;28;20142;-74
2022/06/05 05:54:10;;;;;;;9.07;8.13;;;;;;;16.19;77.98;101418.69;4967736;28;20413;-74
2022/06/05 05:56:36;;;;;;;8.88;7.43;;;;;;;16.20;78.18;101411.75;4968552;28;20014;-74
2022/06/05 05:59:02;;;;;;;12.02;8.57;;;;;;;16.19;78.21;101410.00;4960297;28;20030;-74
2022/06/05 06:01:28;;;;;;;8.30;7.60;;;;;;;16.22;78.19;101404.81;4936806;28;20052;-75
2022/06/05 06:03:53;;;;;;;8.75;7.70;;;;;;;16.23;78.29;101393.47;4941604;28;20039;-75
2022/06/05 06:06:24;;;;;;;8.40;7.65;;;;;;;16.27;77.99;101400.53;4955628;28;20030;-75
2022/06/05 06:08:50;;;;;;;9.25;7.80;;;;;;;16.31;78.15;101380.56;4968167;28;20023;-75
2022/06/05 06:11:15;;;;;;;8.00;7.32;;;;;;;16.33;78.13;101382.31;4968707;28;20054;-75
2022/06/05 06:13:41;;;;;;;8.80;7.78;;;;;;;16.36;77.87;101378.00;4968290;28;20064;-75
2022/06/05 06:16:07;;;;;;;9.85;7.85;;;;;;;16.40;77.96;101379.81;4968391;28;20018;-75
2022/06/05 06:18:32;;;;;;;8.55;7.85;;;;;;;16.44;77.02;101366.81;4967202;28;20037;-74
2022/06/05 06:20:58;;;;;;;8.95;8.05;;;;;;;16.50;77.74;101360.81;4967274;28;20059;-74
2022/06/05 06:23:23;;;;;;;8.60;7.72;;;;;;;16.55;77.12;101363.47;4965239;28;20173;-75
2022/06/05 06:25:49;;;;;;;7.78;7.07;;;;;;;16.55;77.63;101368.72;4958363;28;20077;-74
2022/06/05 06:28:14;;;;;;;8.23;7.45;;;;;;;16.59;77.36;101364.41;4953291;28;20486;-74
2022/06/05 06:30:40;;;;;;;8.73;7.90;;;;;;;16.61;77.78;101355.75;4964914;28;20038;-74
2022/06/05 06:33:05;;;;;;;8.77;8.00;;;;;;;16.67;77.02;101347.09;4948713;28;20035;-74
2022/06/05 06:35:34;;;;;;;8.85;7.97;;;;;;;16.73;76.97;101354.16;4949810;28;20023;-74
2022/06/05 06:37:59;;;;;;;8.23;7.53;;;;;;;16.75;76.56;101335.00;4948573;28;20496;-74
2022/06/05 06:40:25;;;;;;;8.40;7.70;;;;;;;16.85;76.90;101335.13;4948109;28;20117;-74
2022/06/05 06:42:54;;;;;;;8.23;7.47;;;;;;;16.88;77.49;101337.78;4947138;28;20467;-74
2022/06/05 06:45:19;;;;;;;8.30;7.38;;;;;;;16.95;76.69;101334.41;4951997;28;20457;-74
2022/06/05 06:47:45;;;;;;;8.60;7.85;;;;;;;17.03;76.83;101330.16;4956426;28;20042;-74
2022/06/05 06:50:10;;;;;;;8.38;7.60;;;;;;;17.13;76.73;101322.44;4941561;28;20109;-75
2022/06/05 06:52:37;;;;;;;8.05;7.45;;;;;;;17.23;76.44;101321.72;4968145;28;20298;-75
2022/06/05 06:55:03;;;;;;;8.80;8.00;;;;;;;17.33;76.68;101313.94;4947795;28;20459;-75
2022/06/05 06:57:28;;;;;;;7.95;7.25;;;;;;;17.42;76.45;101327.16;4971184;28;20031;-74
2022/06/05 06:59:55;;;;;;;8.68;7.88;;;;;;;17.45;76.68;101335.03;4967854;28;20026;-75
2022/06/05 07:02:20;;;;;;;8.13;7.43;;;;;;;17.48;75.91;101326.34;4957387;28;20027;-74
2022/06/05 07:04:45;;;;;;;8.82;8.07;;;;;;;17.48;75.64;101328.97;4953752;28;20023;-74
2022/06/05 07:07:11;;;;;;;8.10;7.47;;;;;;;17.55;74.92;101316.78;4949540;28;20389;-74
2022/06/05 07:09:36;;;;;;;8.25;7.50;;;;;;;17.63;75.28;101313.38;4949904;28;20114;-74
2022/06/05 07:12:01;;;;;;;9.10;8.30;;;;;;;17.72;74.63;101309.13;4949591;28;20027;-74
2022/06/05 07:14:27;;;;;;;9.18;8.05;;;;;;;17.79;74.93;101310.06;4947659;28;20062;-74
2022/06/05 07:16:54;;;;;;;8.60;7.72;;;;;;;17.83;75.06;101296.97;4967024;28;20100;-74
2022/06/05 07:19:19;;;;;;;8.98;7.97;;;;;;;17.90;75.43;101287.41;4966558;28;20026;-74
2022/06/05 07:21:44;;;;;;;9.30;8.35;;;;;;;17.98;74.90;101292.75;4967365;28;20047;-74
2022/06/05 07:24:10;;;;;;;8.85;7.97;;;;;;;18.04;74.95;101290.19;4958356;28;20458;-74
2022/06/05 07:26:35;;;;;;;8.25;7.55;;;;;;;18.14;75.50;101288.53;4967391;28;20058;-74
2022/06/05 07:29:01;;;;;;;9.80;7.90;;;;;;;18.28;75.00;101287.72;4966759;28;20506;-74
2022/06/05 07:31:29;;;;;;;8.55;7.85;;;;;;;18.40;74.73;101287.84;4979939;28;20070;-75
2022/06/05 07:33:54;;;;;;;8.98;8.20;;;;;;;18.43;74.76;101293.09;4967757;28;20628;-74
2022/06/05 07:36:25;;;;;;;8.63;7.80;;;;;;;18.50;74.51;101280.91;4942365;28;20023;-74
2022/06/05 07:38:50;;;;;;;8.50;7.70;;;;;;;18.54;73.55;101284.41;4949288;28;20486;-74
2022/06/05 07:41:22;;;;;;;9.63;8.65;;;;;;;18.49;73.79;101281.78;4953541;28;20023;-74
2022/06/05 07:43:48;;;;;;;9.07;8.25;;;;;;;18.57;74.05;101279.19;4950664;28;20038;-74
2022/06/05 07:46:13;;;;;;;8.57;7.82;;;;;;;18.65;74.95;101272.25;4967925;28;20029;-74
2022/06/05 07:48:40;;;;;;;9.48;8.70;;;;;;;18.76;73.91;101274.03;4969117;28;20033;-74
2022/06/05 07:56:38;;;;;;;8.52;7.82;;;;;;;18.96;72.91;101261.84;4961497;28;20373;-74
2022/06/05 07:59:04;;;;;;;9.48;8.77;;;;;;;18.94;72.25;101268.84;4967578;28;20023;-74
2022/06/05 08:01:29;;;;;;;9.75;8.75;;;;;;;18.95;73.10;101260.13;4949951;28;20022;-74
2022/06/05 08:03:55;;;;;;;9.35;8.55;;;;;;;19.07;73.98;101242.63;4967371;28;20489;-74
2022/06/05 08:06:20;;;;;;;10.35;9.45;;;;;;;19.18;72.89;101245.31;4965416;28;20067;-74
2022/06/05 08:08:46;;;;;;;10.70;9.25;;;;;;;19.31;73.85;101240.97;4964468;28;20033;-74
2022/06/05 08:11:11;;;;;;;9.65;8.85;;;;;;;19.49;72.84;101237.50;4967769;28;20366;-74
2022/06/05 08:13:37;;;;;;;8.73;8.02;;;;;;;19.59;72.06;101241.00;4969392;28;20122;-74
2022/06/05 08:16:02;;;;;;;9.85;8.88;;;;;;;19.74;71.51;101234.00;4965659;28;20077;-74
2022/06/05 08:18:28;;;;;;;9.88;8.98;;;;;;;19.90;70.86;101241.00;4968794;28;20027;-74
2022/06/05 08:20:53;;;;;;;10.07;9.32;;;;;;;20.02;71.51;101231.38;4968350;28;20133;-74
2022/06/05 08:23:18;;;;;;;9.65;8.65;;;;;;;20.15;71.43;101241.00;4970427;28;20027;-74
2022/06/05 08:25:44;;;;;;;9.57;8.80;;;;;;;20.29;70.53;101237.50;4969975;28;20014;-75
2022/06/05 08:28:10;;;;;;;9.10;8.40;;;;;;;20.36;70.11;101231.31;4969770;28;20026;-74
2022/06/05 08:30:37;;;;;;;10.95;9.73;;;;;;;20.36;70.05;101223.41;4969738;28;20037;-75
2022/06/05 08:33:03;;;;;;;10.10;9.20;;;;;;;20.36;71.11;101225.19;4969803;28;20472;-77
2022/06/05 08:35:29;;;;;;;12.18;9.15;;;;;;;20.37;70.95;101226.94;4969840;28;20092;-75
2022/06/05 08:43:43;;;;;;;10.00;9.10;;;;;;;20.31;71.84;101222.56;4969564;28;20045;-74
2022/06/05 08:46:15;;;;;;;11.20;10.15;;;;;;;20.28;70.63;101230.47;4970183;28;20049;-75
2022/06/05 08:49:04;;;;;;;9.65;8.85;;;;;;;20.25;72.26;101234.00;4969586;28;20023;-74
2022/06/05 08:51:50;;;;;;;11.70;10.60;;;;;;;20.19;72.19;101236.63;4970230;28;20026;-75
2022/06/05 08:54:24;;;;;;;10.63;9.55;;;;;;;20.13;72.20;101231.38;4969835;28;20155;-74
2022/06/05 08:57:01;;;;;;;10.52;9.73;;;;;;;20.12;72.39;101235.75;4969576;28;20058;-74
2022/06/05 08:59:35;;;;;;;10.60;9.52;;;;;;;20.14;73.50;101238.38;4969706;28;20019;-73
2022/06/05 09:02:15;;;;;;;11.48;10.57;;;;;;;20.13;73.09;101232.25;4943931;29;20107;-73
2022/06/05 09:04:48;;;;;;;10.43;9.70;;;;;;;20.18;74.79;101229.63;4966277;28;20023;-74
2022/06/05 09:07:18;;;;;;;11.65;10.48;;;;;;;20.18;73.22;101234.00;4969077;28;20035;-74
2022/06/05 09:09:50;;;;;;;11.38;10.43;;;;;;;20.18;73.63;101239.25;4951830;28;20064;-74
2022/06/05 09:12:32;;;;;;;12.43;11.50;;;;;;;20.14;73.48;101234.00;4968439;28;20031;-73
2022/06/05 09:15:36;;;;;;;13.00;11.82;;;;;;;20.11;73.86;101239.25;4952309;28;20031;-74
2022/06/05 09:18:08;;;;;;;12.27;11.38;;;;;;;20.08;73.63;101230.50;4940911;28;20046;-73
2022/06/05 09:20:43;;;;;;;12.82;11.82;;;;;;;20.03;74.44;101227.84;4968785;28;20042;-73
2022/06/05 09:23:19;;;;;;;12.88;11.57;;;;;;;20.07;74.57;101227.00;4966908;28;20376;-73
2022/06/05 09:26:22;;;;;;;12.15;11.15;;;;;;;20.06;74.68;101219.97;4967602;28;20014;-73
2022/06/05 09:29:06;;;;;;;12.55;11.32;;;;;;;20.07;74.93;101216.50;4957515;28;20046;-73
2022/06/05 09:31:46;;;;;;;12.30;11.07;;;;;;;20.10;75.28;101221.72;4968219;28;20106;-73
2022/06/05 09:34:22;;;;;;;12.07;10.82;;;;;;;20.07;74.66;101213.88;4962551;28;20026;-74
2022/06/05 09:37:02;;;;;;;11.35;10.35;;;;;;;20.12;75.97;101219.09;4966698;28;20022;-74
2022/06/05 09:39:34;;;;;;;11.27;10.43;;;;;;;20.12;76.57;101212.09;4967021;28;20026;-75
2022/06/05 09:42:15;;;;;;;11.48;10.45;;;;;;;20.14;77.50;101212.97;4967611;28;20031;-74
2022/06/05 09:44:55;;;;;;;11.90;10.85;;;;;;;20.13;77.12;101208.56;4967181;28;20019;-74
2022/06/05 09:47:29;;;;;;;11.10;10.02;;;;;;;20.14;77.48;101212.97;4968652;28;20034;-75
2022/06/05 09:49:59;;;;;;;10.95;9.82;;;;;;;20.14;77.79;101201.56;4967911;28;20053;-75
2022/06/05 09:52:30;;;;;;;9.70;8.95;;;;;;;20.13;77.97;101200.69;4968232;28;20061;-75
2022/06/05 09:55:05;;;;;;;10.20;9.40;;;;;;;20.10;77.92;101192.81;4968251;28;20030;-74
2022/06/05 10:00:43;;;;;;;9.15;8.40;;;;;;;20.10;77.25;101191.91;4967739;28;20041;-74
2022/06/05 10:03:14;;;;;;;9.48;8.68;;;;;;;20.10;79.38;101178.78;4937547;28;20031;-75
2022/06/05 10:05:45;;;;;;;9.70;8.82;;;;;;;20.10;79.27;101174.41;4967570;28;20536;-74
2022/06/05 10:08:10;;;;;;;10.40;9.50;;;;;;;20.09;77.82;101183.19;4967662;28;20718;-74
2022/06/05 10:10:42;;;;;;;10.50;9.60;;;;;;;20.09;78.03;101171.78;4982471;28;20041;-76
2022/06/05 10:13:22;;;;;;;9.95;9.07;;;;;;;20.08;77.92;101170.88;4967039;28;20183;-76
2022/06/05 10:16:03;;;;;;;11.50;10.63;;;;;;;20.10;78.30;101173.50;4966947;28;20070;-76
2022/06/05 10:18:45;;;;;;;11.30;10.35;;;;;;;20.10;79.12;101174.41;4967465;28;20405;-76
2022/06/05 10:21:11;;;;;;;12.02;10.85;;;;;;;20.14;79.89;101170.00;4968233;28;20051;-75
2022/06/05 10:23:44;;;;;;;12.95;11.32;;;;;;;20.18;80.74;101165.59;4968350;28;20097;-76
2022/06/05 10:26:28;;;;;;;12.02;10.88;;;;;;;20.23;81.70;101171.72;4968141;28;20057;-76
2022/06/05 10:29:08;;;;;;;12.07;11.05;;;;;;;20.24;81.54;101170.84;4981613;28;20035;-74
2022/06/05 10:31:36;;;;;;;14.35;11.80;;;;;;;20.20;82.81;101175.22;4964497;28;20054;-74
2022/06/05 10:34:28;;;;;;;12.65;11.35;;;;;;;20.21;81.96;101169.09;4953387;28;20763;-74
2022/06/05 10:37:20;;;;;;;13.05;12.05;;;;;;;20.24;81.96;101166.47;4954958;28;20019;-74
2022/06/05 10:40:18;;;;;;;12.93;11.93;;;;;;;20.22;83.92;101162.09;4966760;28;20027;-74
2022/06/05 10:42:52;;;;;;;13.40;12.30;;;;;;;20.21;85.28;101165.59;4955077;28;20118;-74
2022/06/05 10:45:55;;;;;;;14.35;13.13;;;;;;;20.14;85.86;101165.63;4966462;28;20078;-74
2022/06/05 10:48:34;;;;;;;12.80;11.70;;;;;;;20.09;88.57;101167.41;4966728;28;20027;-74
2022/06/05 10:51:05;;;;;;;13.25;12.13;;;;;;;20.02;88.93;101170.88;4947988;28;20335;-74
2022/06/05 10:54:19;;;;;;;14.25;13.00;;;;;;;19.94;90.07;101164.75;4960077;28;20031;-74
2022/06/05 10:56:55;;;;;;;13.70;12.52;;;;;;;19.85;91.24;101163.91;4949572;28;20431;-74
2022/06/05 10:59:59;;;;;;;13.70;12.50;;;;;;;19.77;92.67;101156.00;4967408;28;20091;-74
2022/06/05 11:02:40;;;;;;;13.60;12.40;;;;;;;19.68;94.12;101154.28;4956114;28;20063;-73
2022/06/05 11:05:43;;;;;;;13.60;12.52;;;;;;;19.60;94.70;101153.41;4967299;28;20058;-73
2022/06/05 11:08:14;;;;;;;12.98;11.85;;;;;;;19.55;96.33;101155.16;4972187;28;20378;-73
2022/06/05 11:13:44;;;;;;;14.23;13.13;;;;;;;19.42;100.00;101159.53;4971517;28;20045;-73
2022/06/05 11:16:35;;;;;;;14.43;13.32;;;;;;;19.37;100.00;101156.03;4971177;28;20086;-73
2022/06/05 11:19:32;;;;;;;16.33;14.93;;;;;;;19.32;100.00;101156.03;4960378;28;20038;-74
2022/06/05 11:22:01;;;;;;;17.77;15.98;;;;;;;19.25;100.00;101151.66;4970488;28;20262;-73
2022/06/05 11:24:31;;;;;;;21.02;19.23;;;;;;;19.11;100.00;101143.72;4970813;28;20030;-73
2022/06/05 11:26:57;;;;;;;;;;;;;;;18.99;100.00;101144.59;4967859;28;20033;-73
2022/06/05 11:29:51;;;;;;;20.85;19.02;;;;;;;18.89;100.00;101139.31;4962329;28;19909;-73
2022/06/05 11:32:19;;;;;;;22.77;20.98;;;;;;;18.78;100.00;101138.44;4970400;28;20061;-73
2022/06/05 11:34:56;;;;;;;22.52;20.58;;;;;;;18.71;100.00;101135.78;4969815;28;20454;-73
2022/06/05 11:37:49;;;;;;;23.80;21.90;;;;;;;18.64;100.00;101126.13;4985073;28;20479;-73
2022/06/05 11:40:29;;;;;;;22.95;21.00;;;;;;;18.60;100.00;101132.28;4970799;28;20092;-73
2022/06/05 11:43:15;;;;;;;22.77;20.92;;;;;;;18.58;100.00;101123.50;4969293;28;20027;-73
2022/06/05 11:46:25;;;;;;;22.17;20.58;;;;;;;18.56;100.00;101120.00;4970415;28;20046;-73
2022/06/05 11:49:20;;;;;;;21.73;19.67;;;;;;;18.56;100.00;101125.25;4952030;28;20046;-73
2022/06/05 11:52:07;;;;;;;23.23;21.33;;;;;;;18.55;100.00;101120.84;4966262;28;20475;-72
2022/06/05 11:55:04;;;;;;;25.63;23.63;;;;;;;18.53;100.00;101120.00;4968708;28;20034;-72
2022/06/05 11:57:38;;;;;;;23.63;21.98;;;;;;;18.50;100.00;101119.97;4947671;28;20039;-73
2022/06/05 12:00:15;;;;;;;25.95;23.80;;;;;;;18.47;100.00;101116.44;4970336;28;20090;-73
2022/06/05 12:02:53;;;;;;;26.30;24.10;;;;;;;18.39;100.00;101118.19;4968237;28;20041;-72
2022/06/05 12:05:40;;;;;;;26.17;24.17;;;;;;;18.42;100.00;101117.34;4964487;28;20025;-72
2022/06/05 12:08:15;;;;;;;25.75;23.65;;;;;;;18.41;100.00;101116.44;4967575;28;20379;-72
2022/06/05 12:11:09;;;;;;;25.27;23.33;;;;;;;18.43;100.00;101106.84;4970902;28;20098;-73